Flatbush, Canada
Current Conditions -  °F | °C
As of 1:09 AM on Sunday 26 Oct 2014 (Local Time) from CYZH Reporting Station
Light Snow Light Snow  
Wind Chill: 29°   Ceiling: 500
Heat Index: 34°   Visibility: 2.2mi
Dew Point: 32°   Wind: 6mph
Humidity: 93%   Direction: 110°ESE
Pressure: 29.6"   Gusts: NA
Location:  54.68°N, 114.15°W
Report Text: CYZH 260709Z AUTO 11005KT 2 1/4SM -SN OVC005 01/00 A2960 RMK SLP050
Loading
Personal Weather Stations






























Interactive Weather Map
Tropical Storm Tracking
New forecast layout! Learn more

10-Day Weather Forecast

Advertisements
Track Severe Weather on mobile